Time;durP1;ratioP1;P1;durP2;ratioP2;P2;SDS_P1;SDS_P2;PMS_P1;PMS_P2;Temp;Humidity;BMP_temperature;BMP_pressure;BME280_temperature;BME280_humidity;BME280_pressure;Samples;Min_cycle;Max_cycle;Signal;HPM_P1;HPM_P2
2022/12/08 00:00:00;;;;;;;19.37;7.90;;;;;;;3.01;100.00;95820.91;5057889;28;20207;-71
2022/12/08 00:02:28;;;;;;;17.40;7.37;;;;;;;3.06;100.00;95813.50;5057780;28;20661;-71
2022/12/08 00:10:22;;;;;;;17.80;7.03;;;;;;;2.95;100.00;95815.47;5057350;28;20219;-71
2022/12/08 00:12:49;;;;;;;19.57;7.90;;;;;;;2.92;100.00;95809.75;5058025;28;20207;-71
2022/12/08 00:15:15;;;;;;;19.93;7.53;;;;;;;2.85;100.00;95806.03;5057113;28;20207;-71
2022/12/08 00:17:43;;;;;;;24.57;7.53;;;;;;;3.12;100.00;95801.72;5056839;28;20220;-71
2022/12/08 00:20:11;;;;;;;19.13;7.00;;;;;;;3.00;100.00;95807.25;5058336;28;20200;-71
2022/12/08 00:22:37;;;;;;;17.10;7.03;;;;;;;2.89;100.00;95805.63;5057677;28;20208;-71
2022/12/08 00:25:04;;;;;;;16.40;7.50;;;;;;;3.01;100.00;95801.88;5056854;28;20204;-71
2022/12/08 00:27:31;;;;;;;18.97;7.87;;;;;;;2.82;100.00;95799.34;5057255;28;20231;-70
2022/12/08 00:29:57;;;;;;;19.03;7.53;;;;;;;2.78;100.00;95800.59;5057343;28;20207;-71
2022/12/08 00:32:24;;;;;;;18.47;7.23;;;;;;;2.92;100.00;95787.13;5056710;28;20212;-71
2022/12/08 00:34:52;;;;;;;19.37;8.10;;;;;;;2.87;100.00;95793.72;5056555;28;20235;-71
2022/12/08 00:37:18;;;;;;;19.70;7.20;;;;;;;2.66;100.00;95788.72;5057243;28;20220;-71
2022/12/08 00:39:45;;;;;;;21.23;7.43;;;;;;;2.78;100.00;95782.38;5057570;28;20213;-71
2022/12/08 00:42:11;;;;;;;21.77;7.47;;;;;;;2.78;100.00;95779.78;5057330;28;20208;-71
2022/12/08 00:44:39;;;;;;;23.23;8.07;;;;;;;2.74;100.00;95783.63;5056111;28;20244;-70
2022/12/08 00:47:05;;;;;;;21.17;7.43;;;;;;;2.75;100.00;95787.88;5056911;28;20902;-71
2022/12/08 00:49:32;;;;;;;22.67;8.40;;;;;;;2.73;100.00;95781.16;5056683;28;20211;-70
2022/12/08 00:52:00;;;;;;;19.30;8.03;;;;;;;2.88;100.00;95777.97;5057432;28;20217;-71
2022/12/08 00:54:26;;;;;;;20.07;7.80;;;;;;;2.84;100.00;95781.81;5056274;28;20211;-71
2022/12/08 00:56:53;;;;;;;22.57;8.30;;;;;;;2.85;100.00;95793.03;5056504;28;20235;-70
2022/12/08 00:59:19;;;;;;;17.37;7.40;;;;;;;2.87;100.00;95781.53;5057106;28;20212;-71
2022/12/08 01:01:47;;;;;;;21.53;7.93;;;;;;;2.82;100.00;95773.31;5057083;28;20205;-71
2022/12/08 01:04:16;;;;;;;18.67;7.23;;;;;;;2.79;100.00;95783.19;5055061;28;20461;-71
2022/12/08 01:06:43;;;;;;;17.97;7.90;;;;;;;2.81;100.00;95784.69;5056675;28;20228;-71
2022/12/08 01:09:12;;;;;;;22.23;8.57;;;;;;;2.82;100.00;95772.50;5056715;28;20233;-70
2022/12/08 01:11:39;;;;;;;23.50;7.03;;;;;;;2.77;100.00;95772.13;5057136;28;20228;-70
2022/12/08 01:14:05;;;;;;;20.57;7.70;;;;;;;2.83;100.00;95771.56;5055943;28;21058;-71
2022/12/08 01:16:35;;;;;;;18.37;7.97;;;;;;;2.87;100.00;95770.31;5056769;28;20249;-71
2022/12/08 01:19:01;;;;;;;17.33;6.13;;;;;;;2.64;100.00;95775.03;5056426;28;20631;-71
2022/12/08 01:21:28;;;;;;;17.43;6.80;;;;;;;2.67;100.00;95768.72;5056814;28;20207;-71
2022/12/08 01:23:56;;;;;;;17.03;7.17;;;;;;;2.67;100.00;95766.13;5055752;28;20676;-70
2022/12/08 01:26:24;;;;;;;19.40;7.20;;;;;;;2.72;100.00;95767.31;5055799;28;20236;-69
2022/12/08 01:28:51;;;;;;;15.83;7.60;;;;;;;2.67;100.00;95766.94;5056847;28;20703;-71
2022/12/08 01:31:19;;;;;;;19.23;7.67;;;;;;;2.69;100.00;95774.59;5057482;28;20208;-71
2022/12/08 01:33:46;;;;;;;20.27;7.67;;;;;;;2.72;100.00;95772.53;5056209;28;20274;-69
2022/12/08 01:36:20;;;;;;;18.93;8.00;;;;;;;2.78;100.00;95776.38;5055839;28;20250;-69
2022/12/08 01:38:46;;;;;;;17.87;7.50;;;;;;;2.59;100.00;95766.81;5057361;28;20215;-70
2022/12/08 01:41:15;;;;;;;17.33;8.30;;;;;;;2.61;100.00;95775.31;5056488;28;20212;-68
2022/12/08 01:44:01;;;;;;;26.23;7.90;;;;;;;2.77;100.00;95772.13;5055637;28;20210;-70
2022/12/08 01:46:29;;;;;;;17.43;7.63;;;;;;;2.69;100.00;95772.00;5056825;28;20220;-70
2022/12/08 01:49:03;;;;;;;20.70;7.13;;;;;;;2.77;100.00;95762.53;5056478;28;20230;-71
2022/12/08 01:51:33;;;;;;;17.60;7.67;;;;;;;2.80;100.00;95764.03;5056594;28;20573;-70
2022/12/08 01:53:59;;;;;;;17.53;7.00;;;;;;;2.82;100.00;95769.91;5056290;28;20215;-70
2022/12/08 01:56:33;;;;;;;21.63;7.53;;;;;;;2.91;100.00;95766.47;5056607;28;20752;-71
2022/12/08 01:59:01;;;;;;;20.53;7.73;;;;;;;2.89;100.00;95758.81;5059293;28;20207;-70
2022/12/08 02:01:28;;;;;;;15.03;7.20;;;;;;;2.86;100.00;95764.28;5056697;28;20204;-71
2022/12/08 02:03:58;;;;;;;19.40;7.20;;;;;;;2.93;100.00;95754.94;5055474;28;20215;-70
2022/12/08 02:06:27;;;;;;;18.00;6.90;;;;;;;2.83;100.00;95748.94;5056577;28;20233;-71
2022/12/08 02:08:54;;;;;;;15.40;6.80;;;;;;;2.79;100.00;95751.97;5056978;28;20227;-71
2022/12/08 02:11:22;;;;;;;21.57;8.00;;;;;;;2.74;100.00;95749.81;5059664;28;20204;-71
2022/12/08 02:13:51;;;;;;;22.27;7.83;;;;;;;2.81;100.00;95743.06;5060178;28;20204;-70
2022/12/08 02:16:32;;;;;;;21.93;7.80;;;;;;;2.95;100.00;95731.38;5059959;28;20220;-70
2022/12/08 02:19:10;;;;;;;22.00;8.20;;;;;;;2.93;100.00;95734.13;5059985;28;20214;-70
2022/12/08 02:21:44;;;;;;;20.43;7.47;;;;;;;2.87;100.00;95723.47;5059451;28;20660;-72
2022/12/08 02:24:18;;;;;;;21.40;8.03;;;;;;;2.87;100.00;95724.28;5059193;28;20215;-72
2022/12/08 02:27:06;;;;;;;18.07;8.60;;;;;;;2.90;100.00;95718.78;5059888;28;20224;-72
2022/12/08 02:30:04;;;;;;;18.63;7.90;;;;;;;2.86;100.00;95727.84;5059340;28;20219;-71
2022/12/08 02:33:03;;;;;;;17.97;7.70;;;;;;;2.83;100.00;95720.34;5060420;28;20218;-71
2022/12/08 02:35:37;;;;;;;19.43;8.20;;;;;;;2.67;100.00;95716.69;5058805;28;20200;-70
2022/12/08 02:38:13;;;;;;;19.67;7.07;;;;;;;2.69;100.00;95718.19;5059125;28;20219;-71
2022/12/08 02:40:50;;;;;;;19.27;7.40;;;;;;;2.75;100.00;95715.03;5059607;28;20667;-71
2022/12/08 02:43:23;;;;;;;21.80;7.77;;;;;;;2.54;100.00;95717.00;5059163;28;20211;-72
2022/12/08 02:45:55;;;;;;;15.00;6.63;;;;;;;2.63;100.00;95715.34;5059661;28;20231;-71
2022/12/08 02:48:22;;;;;;;16.53;7.73;;;;;;;2.16;100.00;95720.66;5059002;28;20237;-70
2022/12/08 02:50:50;;;;;;;20.57;7.20;;;;;;;2.05;100.00;95723.41;5059460;28;20212;-71
2022/12/08 02:53:16;;;;;;;16.87;7.03;;;;;;;2.07;100.00;95731.88;5059791;28;20211;-71
2022/12/08 02:55:56;;;;;;;20.00;6.73;;;;;;;2.02;100.00;95716.69;5058507;28;20232;-70
2022/12/08 02:58:37;;;;;;;15.23;6.60;;;;;;;1.90;100.00;95730.00;5058814;28;20207;-70
2022/12/08 03:01:20;;;;;;;17.17;8.67;;;;;;;2.00;100.00;95725.63;5059160;28;20218;-70
2022/12/08 03:03:54;;;;;;;18.83;7.27;;;;;;;1.85;100.00;95712.19;5059105;28;20208;-70
2022/12/08 03:06:31;;;;;;;18.87;7.57;;;;;;;1.92;100.00;95702.06;5058354;28;20237;-72
2022/12/08 03:09:03;;;;;;;15.53;6.57;;;;;;;1.91;100.00;95703.06;5059324;28;20225;-70
2022/12/08 03:11:36;;;;;;;17.30;6.90;;;;;;;1.87;100.00;95693.88;5058614;28;20215;-70
2022/12/08 03:14:06;;;;;;;17.60;7.03;;;;;;;1.63;100.00;95696.09;5057625;28;20218;-72
2022/12/08 03:16:38;;;;;;;25.27;6.63;;;;;;;1.57;100.00;95688.84;5058280;28;20763;-72
2022/12/08 03:19:10;;;;;;;13.57;6.73;;;;;;;1.56;100.00;95688.97;5058683;28;20863;-71
2022/12/08 03:21:39;;;;;;;16.60;6.53;;;;;;;1.34;100.00;95692.66;5058347;28;20212;-71
2022/12/08 03:24:08;;;;;;;14.97;6.67;;;;;;;1.48;100.00;95687.06;5058268;28;20251;-71
2022/12/08 03:26:41;;;;;;;20.00;7.57;;;;;;;1.57;100.00;95688.84;5058857;28;20227;-71
2022/12/08 03:29:07;;;;;;;15.03;6.60;;;;;;;1.49;100.00;95688.72;5058451;28;20911;-71
2022/12/08 03:31:40;;;;;;;16.90;6.43;;;;;;;1.59;100.00;95684.34;5058422;28;20235;-71
2022/12/08 03:34:08;;;;;;;22.20;8.47;;;;;;;1.34;100.00;95682.25;5057904;28;20212;-71
2022/12/08 03:36:35;;;;;;;12.87;6.00;;;;;;;1.27;100.00;95683.78;5058481;28;20224;-71
2022/12/08 03:39:03;;;;;;;14.07;6.20;;;;;;;1.41;100.00;95680.78;5058319;28;20200;-70
2022/12/08 03:41:30;;;;;;;13.17;5.43;;;;;;;1.35;100.00;95681.31;5058165;28;20699;-71
2022/12/08 03:43:58;;;;;;;14.07;6.20;;;;;;;1.30;100.00;95675.72;5057967;28;20212;-70
2022/12/08 03:46:27;;;;;;;13.70;6.00;;;;;;;1.27;100.00;95678.59;5056088;28;20226;-71
2022/12/08 03:48:53;;;;;;;17.90;5.63;;;;;;;1.02;100.00;95680.84;5058392;28;20235;-71
2022/12/08 03:51:20;;;;;;;15.67;6.53;;;;;;;1.20;100.00;95680.06;5058164;28;20256;-71
2022/12/08 03:53:47;;;;;;;14.60;5.90;;;;;;;1.04;100.00;95678.13;5057683;28;20720;-71
2022/12/08 03:56:21;;;;;;;14.50;6.87;;;;;;;1.09;100.00;95678.56;5058473;28;20237;-71
2022/12/08 03:58:48;;;;;;;17.70;6.47;;;;;;;0.73;100.00;95673.94;5058386;28;20198;-71
2022/12/08 04:01:14;;;;;;;13.37;5.63;;;;;;;0.89;100.00;95669.06;5057965;28;20244;-71
2022/12/08 04:03:41;;;;;;;17.63;6.77;;;;;;;0.75;100.00;95666.84;5057256;28;20211;-71
2022/12/08 04:06:08;;;;;;;14.93;6.57;;;;;;;0.93;100.00;95673.03;5058797;28;20226;-71
2022/12/08 04:08:34;;;;;;;18.17;6.63;;;;;;;0.81;100.00;95668.91;5057754;28;20250;-71
2022/12/08 04:11:01;;;;;;;17.00;6.53;;;;;;;0.59;100.00;95669.94;5057237;28;20196;-71
2022/12/08 04:13:29;;;;;;;15.70;6.60;;;;;;;0.86;100.00;95675.34;5058085;28;20200;-71
2022/12/08 04:15:56;;;;;;;21.47;7.60;;;;;;;0.73;100.00;95671.34;5057835;28;20228;-71
2022/12/08 04:18:22;;;;;;;14.87;6.63;;;;;;;0.72;100.00;95675.72;5057031;28;20197;-70
2022/12/08 04:20:49;;;;;;;18.37;6.60;;;;;;;0.56;100.00;95672.00;5057927;28;20262;-71
2022/12/08 04:23:15;;;;;;;16.47;6.23;;;;;;;0.51;100.00;95663.78;5057875;28;20214;-70
2022/12/08 04:25:42;;;;;;;16.27;6.93;;;;;;;0.61;100.00;95668.03;5056220;28;20225;-71
2022/12/08 04:28:08;;;;;;;13.30;6.33;;;;;;;0.65;100.00;95668.63;5057285;28;20220;-71
2022/12/08 04:30:36;;;;;;;15.13;5.83;;;;;;;0.65;100.00;95660.84;5057712;28;20203;-71
2022/12/08 04:33:03;;;;;;;16.43;6.77;;;;;;;0.57;100.00;95660.66;5057870;28;20200;-71
2022/12/08 04:35:29;;;;;;;18.67;6.80;;;;;;;0.44;100.00;95664.44;5056389;28;20688;-71
2022/12/08 04:37:56;;;;;;;17.53;6.73;;;;;;;0.28;100.00;95654.56;5057585;28;20208;-70
2022/12/08 04:40:23;;;;;;;19.50;6.87;;;;;;;0.44;100.00;95657.47;5057277;28;20387;-71
2022/12/08 04:42:49;;;;;;;19.90;7.27;;;;;;;0.46;100.00;95653.00;5056981;28;20211;-71
2022/12/08 04:45:16;;;;;;;14.93;6.50;;;;;;;0.54;100.00;95647.97;5056389;28;20219;-71
2022/12/08 04:47:44;;;;;;;17.27;6.60;;;;;;;0.66;100.00;95655.50;5057181;28;20230;-71
2022/12/08 04:50:11;;;;;;;14.30;6.23;;;;;;;0.49;100.00;95647.53;5057158;28;20228;-71
2022/12/08 04:52:38;;;;;;;21.33;7.77;;;;;;;0.16;100.00;95650.38;5056875;28;20208;-70
2022/12/08 04:55:06;;;;;;;17.23;6.90;;;;;;;0.40;100.00;95650.09;5056496;28;20201;-71
2022/12/08 04:57:32;;;;;;;13.30;5.83;;;;;;;0.39;100.00;95643.28;5056699;28;20221;-71
2022/12/08 04:59:59;;;;;;;15.10;6.67;;;;;;;0.36;100.00;95646.94;5057468;28;20559;-71
2022/12/08 05:02:25;;;;;;;13.20;5.93;;;;;;;0.38;100.00;95642.47;5056843;28;20204;-71
2022/12/08 05:04:53;;;;;;;11.77;5.87;;;;;;;0.22;100.00;95634.34;5056531;28;20204;-71
2022/12/08 05:07:20;;;;;;;25.40;7.13;;;;;;;0.14;100.00;95636.75;5056750;28;20231;-71
2022/12/08 05:09:47;;;;;;;14.83;6.67;;;;;;;0.12;100.00;95638.66;5057346;28;20259;-71
2022/12/08 05:12:13;;;;;;;15.97;6.20;;;;;;;0.25;100.00;95638.44;5056726;28;20211;-70
2022/12/08 05:14:40;;;;;;;14.63;6.43;;;;;;;0.30;100.00;95639.69;5056071;28;20200;-71
2022/12/08 05:17:06;;;;;;;19.27;6.87;;;;;;;0.25;100.00;95644.44;5056941;28;20216;-71
2022/12/08 05:19:33;;;;;;;15.97;6.73;;;;;;;0.05;100.00;95641.88;5056844;28;20203;-71
2022/12/08 05:22:01;;;;;;;16.17;6.93;;;;;;;0.15;100.00;95638.41;5056421;28;20231;-71
2022/12/08 05:24:27;;;;;;;19.30;8.53;;;;;;;0.12;100.00;95643.81;5055682;28;20648;-71
2022/12/08 05:26:54;;;;;;;22.03;7.30;;;;;;;0.25;100.00;95648.81;5056820;28;20227;-71
2022/12/08 05:29:20;;;;;;;19.93;7.53;;;;;;;0.35;100.00;95640.13;5056755;28;20229;-71
2022/12/08 05:31:47;;;;;;;16.80;7.50;;;;;;;0.43;100.00;95649.81;5056234;28;20204;-71
2022/12/08 05:34:13;;;;;;;17.43;7.10;;;;;;;0.38;100.00;95647.66;5055687;28;20204;-71
2022/12/08 05:36:40;;;;;;;19.07;7.73;;;;;;;0.46;100.00;95639.19;5056819;28;20231;-71
2022/12/08 05:39:11;;;;;;;20.07;8.47;;;;;;;0.55;100.00;95641.84;5056519;28;20196;-71
2022/12/08 05:41:38;;;;;;;17.20;7.03;;;;;;;0.32;100.00;95640.38;5056275;28;20206;-71
2022/12/08 05:44:05;;;;;;;20.13;8.03;;;;;;;0.19;100.00;95637.19;5057079;28;21156;-71
2022/12/08 05:46:32;;;;;;;17.60;7.43;;;;;;;0.28;100.00;95639.00;5060128;28;20305;-71
2022/12/08 05:48:59;;;;;;;25.83;8.67;;;;;;;0.41;100.00;95638.75;5060551;28;21319;-71
2022/12/08 05:51:26;;;;;;;22.97;8.73;;;;;;;0.46;100.00;95641.78;5060593;28;20205;-71
2022/12/08 05:53:54;;;;;;;23.63;9.07;;;;;;;0.53;100.00;95638.53;5059823;28;20196;-71
2022/12/08 05:56:22;;;;;;;33.83;11.73;;;;;;;0.53;100.00;95640.31;5060375;28;20235;-71
2022/12/08 05:58:49;;;;;;;15.77;7.30;;;;;;;0.48;100.00;95643.28;5060653;28;20201;-71
2022/12/08 06:01:21;;;;;;;22.77;8.00;;;;;;;0.42;100.00;95638.66;5060229;28;20204;-71
2022/12/08 06:03:48;;;;;;;32.50;10.83;;;;;;;0.27;100.00;95637.34;5059533;28;20212;-71
2022/12/08 06:06:14;;;;;;;49.53;15.53;;;;;;;0.42;100.00;95636.06;5060050;28;20232;-71
2022/12/08 06:08:41;;;;;;;32.23;12.40;;;;;;;0.45;100.00;95638.38;5058605;28;20744;-71
2022/12/08 06:11:07;;;;;;;30.07;11.87;;;;;;;0.36;100.00;95636.56;5058177;28;20204;-70
2022/12/08 06:13:36;;;;;;;25.47;10.13;;;;;;;0.56;100.00;95640.88;5057936;28;20595;-70
2022/12/08 06:16:06;;;;;;;28.20;10.33;;;;;;;0.58;100.00;95640.75;5059068;28;20221;-70
2022/12/08 06:18:33;;;;;;;23.70;8.07;;;;;;;0.17;100.00;95636.50;5057569;28;20196;-72
2022/12/08 06:21:04;;;;;;;24.53;8.23;;;;;;;0.37;100.00;95633.03;5058565;28;20210;-71
2022/12/08 06:23:31;;;;;;;23.23;8.73;;;;;;;0.43;100.00;95629.09;5058265;28;20212;-71
2022/12/08 06:26:01;;;;;;;27.43;9.73;;;;;;;0.56;100.00;95643.47;5058812;28;21143;-71
2022/12/08 06:28:28;;;;;;;24.13;9.00;;;;;;;0.36;100.00;95635.78;5059487;28;20209;-72
2022/12/08 06:30:56;;;;;;;22.37;9.57;;;;;;;0.53;100.00;95635.94;5060709;28;20713;-70
2022/12/08 06:33:23;;;;;;;23.03;8.47;;;;;;;0.45;100.00;95634.97;5063048;28;20204;-70
2022/12/08 06:35:50;;;;;;;27.07;9.30;;;;;;;0.42;100.00;95630.88;5062909;28;20229;-72
2022/12/08 06:38:16;;;;;;;31.50;10.80;;;;;;;0.39;100.00;95636.31;5059775;28;20205;-69
2022/12/08 06:40:43;;;;;;;26.47;9.57;;;;;;;0.37;100.00;95635.63;5059758;28;20196;-72
2022/12/08 06:43:10;;;;;;;30.50;9.83;;;;;;;0.25;100.00;95635.84;5057988;28;20204;-72
2022/12/08 06:45:36;;;;;;;33.43;9.50;;;;;;;0.21;100.00;95635.28;5057808;28;20212;-72
2022/12/08 06:48:04;;;;;;;25.43;9.90;;;;;;;0.35;100.00;95639.31;5058455;28;20213;-72
2022/12/08 06:50:32;;;;;;;33.00;9.60;;;;;;;0.26;100.00;95640.91;5058237;28;20225;-73
2022/12/08 06:52:58;;;;;;;26.37;8.77;;;;;;;0.23;100.00;95642.91;5058035;28;20200;-72
2022/12/08 06:55:25;;;;;;;19.50;8.27;;;;;;;0.10;100.00;95640.56;5056682;28;20204;-73
2022/12/08 06:57:53;;;;;;;27.70;9.37;;;;;;;0.17;100.00;95646.03;5058029;28;20200;-73
2022/12/08 07:00:20;;;;;;;21.30;7.73;;;;;;;0.12;100.00;95641.22;5058228;28;20208;-72
2022/12/08 07:02:46;;;;;;;25.77;8.60;;;;;;;0.10;100.00;95644.91;5058083;28;20205;-71
2022/12/08 07:05:14;;;;;;;24.13;8.50;;;;;;;0.14;100.00;95647.13;5057433;28;20696;-71
2022/12/08 07:07:40;;;;;;;28.95;9.10;;;;;;;0.16;100.00;95644.41;5021711;28;1055971;-71
2022/12/08 07:10:08;;;;;;;20.90;8.13;;;;;;;0.05;100.00;95642.72;5059021;28;20228;-71
2022/12/08 07:12:34;;;;;;;20.77;7.43;;;;;;;0.00;100.00;95637.09;5059255;28;20201;-71
2022/12/08 07:15:01;;;;;;;24.70;8.10;;;;;;;0.02;100.00;95640.34;5058004;28;20210;-72
2022/12/08 07:17:27;;;;;;;18.27;6.70;;;;;;;-0.02;100.00;95646.75;5058918;28;20236;-72
2022/12/08 07:19:54;;;;;;;16.13;6.50;;;;;;;-0.02;100.00;95651.94;5059155;28;20584;-72
2022/12/08 07:22:22;;;;;;;17.23;7.77;;;;;;;-0.11;100.00;95651.06;5058980;28;20208;-72
2022/12/08 07:24:48;;;;;;;18.33;7.60;;;;;;;-0.21;100.00;95650.19;5058240;28;20204;-71
2022/12/08 07:27:15;;;;;;;24.30;7.53;;;;;;;-0.41;100.00;95649.25;5058689;28;20228;-72
2022/12/08 07:29:41;;;;;;;19.77;7.67;;;;;;;-0.41;100.00;95651.00;5058759;28;20224;-71
2022/12/08 07:32:08;;;;;;;15.70;6.50;;;;;;;-0.24;100.00;95651.25;5059097;28;20215;-72
2022/12/08 07:34:34;;;;;;;15.43;5.60;;;;;;;-0.13;100.00;95658.13;5058261;28;20657;-71
2022/12/08 07:37:01;;;;;;;14.03;6.77;;;;;;;-0.06;100.00;95652.31;5058238;28;20224;-71
2022/12/08 07:39:29;;;;;;;24.10;7.87;;;;;;;-0.17;100.00;95660.16;5058418;28;20193;-72
2022/12/08 07:41:56;;;;;;;15.07;6.90;;;;;;;-0.10;100.00;95653.53;5058991;28;20235;-72
2022/12/08 07:44:22;;;;;;;20.97;8.17;;;;;;;0.01;100.00;95656.88;5057687;28;20208;-72
2022/12/08 07:46:49;;;;;;;23.27;9.10;;;;;;;0.07;100.00;95647.75;5058293;28;20730;-72
2022/12/08 07:49:15;;;;;;;15.60;7.20;;;;;;;0.06;100.00;95648.69;5058209;28;20228;-72
2022/12/08 07:51:42;;;;;;;23.67;8.97;;;;;;;0.08;100.00;95647.63;5057928;28;20673;-72
2022/12/08 07:54:11;;;;;;;18.40;7.77;;;;;;;-0.31;100.00;95652.69;5057456;28;20575;-72
2022/12/08 07:56:39;;;;;;;19.90;8.57;;;;;;;-0.45;100.00;95653.00;5058683;28;20226;-72
2022/12/08 07:59:05;;;;;;;23.27;7.40;;;;;;;-0.35;100.00;95647.91;5058187;28;20208;-72
2022/12/08 08:01:34;;;;;;;20.33;7.47;;;;;;;-0.27;100.00;95650.69;5056930;28;20211;-72
2022/12/08 08:04:04;;;;;;;18.63;8.23;;;;;;;-0.20;100.00;95652.66;5057173;28;20208;-71
2022/12/08 08:06:31;;;;;;;16.63;7.67;;;;;;;-0.06;100.00;95648.91;5057315;28;20228;-72
2022/12/08 08:08:57;;;;;;;16.43;7.63;;;;;;;0.03;100.00;95648.97;5058106;28;20211;-73
2022/12/08 08:11:24;;;;;;;20.97;7.70;;;;;;;0.11;100.00;95636.19;5057398;28;20219;-72
2022/12/08 08:13:52;;;;;;;21.07;7.40;;;;;;;0.27;100.00;95647.72;5057526;28;20294;-72
2022/12/08 08:16:20;;;;;;;17.73;7.03;;;;;;;0.35;100.00;95649.66;5058034;28;20229;-72
2022/12/08 08:18:47;;;;;;;21.37;7.77;;;;;;;0.43;100.00;95653.22;5057807;28;20214;-72
2022/12/08 08:21:14;;;;;;;17.33;7.67;;;;;;;0.44;100.00;95654.88;5057317;28;20204;-72
2022/12/08 08:23:41;;;;;;;19.37;7.70;;;;;;;0.58;100.00;95656.31;5057412;28;20200;-72
2022/12/08 08:26:07;;;;;;;26.53;7.53;;;;;;;0.45;100.00;95655.72;5057889;28;20231;-72
2022/12/08 08:28:34;;;;;;;18.57;7.13;;;;;;;0.54;100.00;95653.16;5057699;28;20200;-72
2022/12/08 08:31:02;;;;;;;23.23;8.83;;;;;;;0.55;100.00;95653.97;5057701;28;20227;-72
2022/12/08 08:33:29;;;;;;;26.23;8.50;;;;;;;0.42;100.00;95656.78;5057263;28;20212;-72
2022/12/08 08:35:55;;;;;;;26.67;8.77;;;;;;;0.61;100.00;95660.28;5057339;28;20700;-72
2022/12/08 08:38:22;;;;;;;28.53;8.43;;;;;;;0.68;100.00;95655.38;5056898;28;20860;-72
2022/12/08 08:40:49;;;;;;;30.80;9.70;;;;;;;0.72;100.00;95654.97;5057643;28;20201;-72
2022/12/08 08:43:28;;;;;;;32.17;9.47;;;;;;;0.84;100.00;95658.28;5057610;28;20211;-72
2022/12/08 08:45:56;;;;;;;30.77;9.97;;;;;;;0.96;100.00;95662.41;5056247;28;20239;-72
2022/12/08 08:48:24;;;;;;;30.07;9.77;;;;;;;0.95;100.00;95665.97;5057467;28;20211;-72
2022/12/08 08:50:51;;;;;;;45.20;11.37;;;;;;;0.75;100.00;95670.28;5056660;28;20224;-75
2022/12/08 08:53:18;;;;;;;22.83;8.13;;;;;;;0.82;100.00;95665.38;5056781;28;20230;-74
2022/12/08 08:55:44;;;;;;;20.17;8.10;;;;;;;0.76;100.00;95660.72;5056034;28;20712;-71
2022/12/08 08:58:11;;;;;;;24.93;7.87;;;;;;;0.92;100.00;95668.81;5056980;28;20208;-71
2022/12/08 09:00:38;;;;;;;38.40;10.07;;;;;;;0.91;100.00;95670.59;5056159;28;20193;-72
2022/12/08 09:03:04;;;;;;;27.77;9.50;;;;;;;1.08;100.00;95663.94;5057536;28;20204;-72
2022/12/08 09:05:32;;;;;;;27.97;8.97;;;;;;;1.27;100.00;95668.22;5055926;28;20665;-72
2022/12/08 09:07:58;;;;;;;28.93;9.80;;;;;;;1.26;100.00;95663.97;5056319;28;20204;-73
2022/12/08 09:10:25;;;;;;;39.03;10.33;;;;;;;1.32;100.00;95666.03;5056268;28;20228;-75
2022/12/08 09:12:52;;;;;;;30.43;9.50;;;;;;;1.30;100.00;95660.13;5057922;28;20216;-72
2022/12/08 09:15:19;;;;;;;22.03;9.33;;;;;;;1.37;100.00;95663.00;5056028;28;20213;-72
2022/12/08 09:17:46;;;;;;;25.53;9.20;;;;;;;1.40;100.00;95654.94;5056363;28;20200;-73
2022/12/08 09:20:12;;;;;;;37.20;10.70;;;;;;;1.39;100.00;95651.53;5056669;28;20207;-72
2022/12/08 09:22:40;;;;;;;23.13;9.43;;;;;;;1.55;100.00;95657.00;5057207;28;20217;-73
2022/12/08 09:25:08;;;;;;;25.17;8.63;;;;;;;1.56;100.00;95647.44;5055886;28;20215;-74
2022/12/08 09:27:34;;;;;;;28.73;9.33;;;;;;;1.41;100.00;95652.25;5056632;28;20216;-73
2022/12/08 09:30:01;;;;;;;20.60;9.37;;;;;;;1.42;100.00;95651.25;5057086;28;20229;-72
2022/12/08 09:32:27;;;;;;;25.53;10.40;;;;;;;1.58;100.00;95646.34;5056516;28;20579;-74
2022/12/08 09:34:54;;;;;;;24.53;9.37;;;;;;;1.55;100.00;95638.81;5055434;28;20677;-74
2022/12/08 09:37:20;;;;;;;25.90;9.40;;;;;;;1.69;100.00;95628.00;5056131;28;20229;-71
2022/12/08 09:39:48;;;;;;;21.53;9.33;;;;;;;1.71;100.00;95628.72;5056439;28;20202;-72
2022/12/08 09:42:23;;;;;;;27.90;10.13;;;;;;;1.91;100.00;95615.56;5056444;28;20212;-72
2022/12/08 09:44:56;;;;;;;24.03;9.30;;;;;;;2.03;100.00;95617.00;5055836;28;20227;-71
2022/12/08 09:47:27;;;;;;;26.57;9.43;;;;;;;2.03;100.00;95619.63;5052225;28;20286;-75
2022/12/08 09:50:02;;;;;;;33.07;10.80;;;;;;;2.10;100.00;95627.66;5054108;28;20615;-73
2022/12/08 09:52:33;;;;;;;25.37;9.10;;;;;;;2.13;100.00;95624.81;5054395;28;20201;-73
2022/12/08 09:55:11;;;;;;;38.80;10.03;;;;;;;1.80;100.00;95610.50;5054740;28;20211;-72
2022/12/08 09:57:38;;;;;;;30.53;9.83;;;;;;;1.90;100.00;95610.50;5054505;28;20618;-72
2022/12/08 10:00:06;;;;;;;20.30;8.17;;;;;;;1.87;100.00;95615.94;5054951;28;20207;-72
2022/12/08 10:02:33;;;;;;;28.23;9.67;;;;;;;1.69;100.00;95609.84;5053527;28;20211;-72
2022/12/08 10:05:00;;;;;;;30.67;11.63;;;;;;;1.81;100.00;95606.94;5053404;28;20208;-72
2022/12/08 10:07:35;;;;;;;27.93;11.10;;;;;;;1.78;100.00;95593.41;5053120;28;20235;-74
2022/12/08 10:10:13;;;;;;;30.07;10.07;;;;;;;1.99;100.00;95600.06;5054050;28;20246;-72
2022/12/08 10:12:46;;;;;;;24.37;9.47;;;;;;;2.03;100.00;95593.63;5052674;28;20217;-73
2022/12/08 10:15:30;;;;;;;32.80;11.80;;;;;;;2.00;100.00;95587.91;5053401;28;20489;-73
2022/12/08 10:18:01;;;;;;;30.17;8.97;;;;;;;2.04;100.00;95584.88;5054084;28;20222;-72
2022/12/08 10:20:35;;;;;;;25.17;9.73;;;;;;;2.03;100.00;95582.44;5053153;28;20669;-73
2022/12/08 10:23:08;;;;;;;30.60;10.87;;;;;;;2.21;100.00;95583.31;5054354;28;20208;-74
2022/12/08 10:25:41;;;;;;;32.53;10.60;;;;;;;2.38;100.00;95579.97;5052703;28;20846;-75
2022/12/08 10:28:09;;;;;;;26.30;10.27;;;;;;;2.39;100.00;95573.81;5052932;28;20208;-72
2022/12/08 10:30:36;;;;;;;26.67;10.40;;;;;;;2.17;100.00;95571.59;5055726;28;20224;-73
2022/12/08 10:33:02;;;;;;;30.40;10.33;;;;;;;2.43;100.00;95571.59;5058615;28;20210;-73
2022/12/08 10:35:43;;;;;;;22.83;10.40;;;;;;;2.64;100.00;95576.56;5057653;28;20851;-71
2022/12/08 10:38:18;;;;;;;26.93;10.93;;;;;;;2.66;100.00;95572.00;5056731;28;20689;-73
2022/12/08 10:40:47;;;;;;;32.87;12.33;;;;;;;2.46;100.00;95565.28;5057393;28;20206;-72
2022/12/08 10:43:17;;;;;;;28.13;10.07;;;;;;;2.63;100.00;95557.50;5057044;28;21204;-76
2022/12/08 10:45:44;;;;;;;29.53;10.97;;;;;;;2.74;100.00;95549.53;5056407;28;20231;-74
2022/12/08 10:48:15;;;;;;;25.97;10.70;;;;;;;2.96;100.00;95541.28;5057148;28;20619;-74
2022/12/08 10:50:44;;;;;;;30.30;10.80;;;;;;;2.85;100.00;95543.28;5057437;28;20238;-74
2022/12/08 10:53:13;;;;;;;26.83;10.53;;;;;;;3.01;100.00;95540.84;5056637;28;20207;-73
2022/12/08 10:55:42;;;;;;;26.63;9.73;;;;;;;3.07;100.00;95541.09;5056897;28;20207;-74
2022/12/08 10:58:32;;;;;;;23.27;9.33;;;;;;;3.01;100.00;95533.06;5058222;28;20199;-75
2022/12/08 11:01:04;;;;;;;21.93;9.47;;;;;;;3.08;100.00;95537.50;5056760;28;20874;-74
2022/12/08 11:03:34;;;;;;;23.23;9.30;;;;;;;3.02;100.00;95525.91;5056646;28;20204;-73
2022/12/08 11:06:09;;;;;;;25.17;9.77;;;;;;;3.13;100.00;95527.44;5057538;28;20228;-75
2022/12/08 11:08:46;;;;;;;19.27;8.43;;;;;;;3.37;100.00;95520.66;5059152;28;20211;-75
2022/12/08 11:11:13;;;;;;;29.23;10.60;;;;;;;3.24;100.00;95514.22;5057201;28;20231;-74
2022/12/08 11:13:42;;;;;;;25.33;9.83;;;;;;;3.17;100.00;95515.78;5057102;28;20200;-73
2022/12/08 11:16:13;;;;;;;18.17;8.30;;;;;;;2.99;100.00;95501.94;5056715;28;20219;-74
2022/12/08 11:18:41;;;;;;;21.27;7.67;;;;;;;3.10;100.00;95502.53;5058300;28;20205;-71
2022/12/08 11:21:11;;;;;;;26.13;9.50;;;;;;;3.20;100.00;95492.06;5062313;28;20211;-72
2022/12/08 11:23:39;;;;;;;27.77;9.93;;;;;;;3.09;100.00;95494.88;5061746;28;20204;-72
2022/12/08 11:26:17;;;;;;;26.00;9.40;;;;;;;3.17;100.00;95489.75;5056417;28;20238;-72
2022/12/08 11:28:45;;;;;;;25.83;10.17;;;;;;;3.27;100.00;95488.72;5056262;28;20211;-72
2022/12/08 11:31:22;;;;;;;27.63;11.90;;;;;;;3.25;100.00;95484.63;5057766;28;20227;-72
2022/12/08 11:33:51;;;;;;;28.83;10.27;;;;;;;3.11;100.00;95483.38;5056425;28;20203;-72
2022/12/08 11:36:22;;;;;;;31.20;10.80;;;;;;;2.97;100.00;95485.69;5056911;28;20236;-72